sensor_id;sensor_type;location;lat;lon;timestamp;pressure;altitude;pressure_sealevel;temperature;humidity
15670;BME280;18524;45.190;5.732;2023-02-11T00:02:12;101281.06;;;3.32;70.13
15670;BME280;18524;45.190;5.732;2023-02-11T00:07:03;101279.56;;;3.19;71.30
15670;BME280;18524;45.190;5.732;2023-02-11T00:11:53;101283.25;;;3.04;72.51
15670;BME280;18524;45.190;5.732;2023-02-11T00:16:44;101287.09;;;2.77;74.54
15670;BME280;18524;45.190;5.732;2023-02-11T00:21:34;101284.41;;;2.83;75.22
15670;BME280;18524;45.190;5.732;2023-02-11T00:26:28;101285.19;;;2.89;75.05
15670;BME280;18524;45.190;5.732;2023-02-11T00:31:20;101292.16;;;2.85;74.35
15670;BME280;18524;45.190;5.732;2023-02-11T00:36:20;101300.28;;;2.58;75.85
15670;BME280;18524;45.190;5.732;2023-02-11T00:41:13;101291.66;;;2.59;75.91
15670;BME280;18524;45.190;5.732;2023-02-11T00:46:04;101291.78;;;2.49;75.75
15670;BME280;18524;45.190;5.732;2023-02-11T00:50:55;101290.09;;;2.47;75.69
15670;BME280;18524;45.190;5.732;2023-02-11T00:55:45;101286.75;;;2.37;76.80
15670;BME280;18524;45.190;5.732;2023-02-11T01:00:36;101284.25;;;2.31;77.10
15670;BME280;18524;45.190;5.732;2023-02-11T01:05:26;101281.56;;;2.39;76.66
15670;BME280;18524;45.190;5.732;2023-02-11T01:10:17;101271.22;;;2.37;75.59
15670;BME280;18524;45.190;5.732;2023-02-11T01:15:08;101275.56;;;2.35;76.99
15670;BME280;18524;45.190;5.732;2023-02-11T01:20:02;101276.19;;;2.53;75.76
15670;BME280;18524;45.190;5.732;2023-02-11T01:24:52;101275.34;;;2.52;74.79
15670;BME280;18524;45.190;5.732;2023-02-11T01:29:42;101264.50;;;2.24;75.27
15670;BME280;18524;45.190;5.732;2023-02-11T01:34:33;101270.41;;;2.34;75.54
15670;BME280;18524;45.190;5.732;2023-02-11T01:39:24;101271.28;;;2.33;75.50
15670;BME280;18524;45.190;5.732;2023-02-11T01:44:36;101270.56;;;2.23;76.19
15670;BME280;18524;45.190;5.732;2023-02-11T01:49:30;101270.53;;;2.22;76.49
15670;BME280;18524;45.190;5.732;2023-02-11T01:54:23;101265.34;;;2.25;76.38
15670;BME280;18524;45.190;5.732;2023-02-11T01:59:40;101257.59;;;2.25;77.54
15670;BME280;18524;45.190;5.732;2023-02-11T02:04:38;101253.34;;;2.17;77.75
15670;BME280;18524;45.190;5.732;2023-02-11T02:09:36;101240.56;;;2.05;78.34
15670;BME280;18524;45.190;5.732;2023-02-11T02:14:28;101232.81;;;2.04;78.77
15670;BME280;18524;45.190;5.732;2023-02-11T02:35:09;101230.44;;;1.82;81.15
15670;BME280;18524;45.190;5.732;2023-02-11T02:40:06;101227.84;;;1.84;81.53
15670;BME280;18524;45.190;5.732;2023-02-11T02:44:58;101224.34;;;1.91;80.87
15670;BME280;18524;45.190;5.732;2023-02-11T02:49:48;101233.75;;;1.98;80.69
15670;BME280;18524;45.190;5.732;2023-02-11T03:00:45;101218.34;;;1.87;81.19
15670;BME280;18524;45.190;5.732;2023-02-11T03:10:35;101212.81;;;2.16;79.07
15670;BME280;18524;45.190;5.732;2023-02-11T03:15:29;101200.06;;;2.01;79.31
15670;BME280;18524;45.190;5.732;2023-02-11T03:20:21;101198.44;;;1.94;79.60
15670;BME280;18524;45.190;5.732;2023-02-11T03:25:12;101189.66;;;2.04;79.92
15670;BME280;18524;45.190;5.732;2023-02-11T03:30:11;101199.28;;;1.96;80.35
15670;BME280;18524;45.190;5.732;2023-02-11T03:35:13;101190.78;;;1.86;79.55
15670;BME280;18524;45.190;5.732;2023-02-11T03:40:09;101200.31;;;1.80;80.27
15670;BME280;18524;45.190;5.732;2023-02-11T03:45:21;101195.31;;;1.66;80.72
15670;BME280;18524;45.190;5.732;2023-02-11T03:50:13;101200.59;;;1.57;81.29
15670;BME280;18524;45.190;5.732;2023-02-11T03:55:10;101198.09;;;1.46;82.84
15670;BME280;18524;45.190;5.732;2023-02-11T04:00:03;101207.53;;;1.50;83.14
15670;BME280;18524;45.190;5.732;2023-02-11T04:04:54;101207.78;;;1.26;85.06
15670;BME280;18524;45.190;5.732;2023-02-11T04:09:45;101196.47;;;1.36;84.98
15670;BME280;18524;45.190;5.732;2023-02-11T04:14:35;101199.25;;;1.18;85.46
15670;BME280;18524;45.190;5.732;2023-02-11T04:19:25;101189.59;;;1.35;84.73
15670;BME280;18524;45.190;5.732;2023-02-11T04:24:16;101194.81;;;1.31;85.45
15670;BME280;18524;45.190;5.732;2023-02-11T04:29:06;101182.00;;;1.18;85.97
15670;BME280;18524;45.190;5.732;2023-02-11T04:33:57;101180.44;;;0.99;87.08
15670;BME280;18524;45.190;5.732;2023-02-11T04:38:47;101182.94;;;1.08;86.99
15670;BME280;18524;45.190;5.732;2023-02-11T04:43:37;101176.13;;;1.01;87.16
15670;BME280;18524;45.190;5.732;2023-02-11T04:48:28;101180.47;;;0.98;87.64
15670;BME280;18524;45.190;5.732;2023-02-11T04:53:18;101176.22;;;0.89;88.73
15670;BME280;18524;45.190;5.732;2023-02-11T04:58:09;101173.53;;;1.03;88.55
15670;BME280;18524;45.190;5.732;2023-02-11T05:02:59;101177.66;;;1.23;87.74
15670;BME280;18524;45.190;5.732;2023-02-11T05:07:49;101182.59;;;1.43;86.60
15670;BME280;18524;45.190;5.732;2023-02-11T05:12:40;101180.84;;;1.47;85.90
15670;BME280;18524;45.190;5.732;2023-02-11T05:17:30;101173.88;;;1.55;85.44
15670;BME280;18524;45.190;5.732;2023-02-11T05:22:21;101172.22;;;1.49;84.54
15670;BME280;18524;45.190;5.732;2023-02-11T05:27:11;101168.09;;;1.32;85.61
15670;BME280;18524;45.190;5.732;2023-02-11T05:32:02;101176.78;;;1.23;86.19
15670;BME280;18524;45.190;5.732;2023-02-11T05:36:52;101181.31;;;0.97;87.88
15670;BME280;18524;45.190;5.732;2023-02-11T05:41:43;101183.97;;;0.89;88.32
15670;BME280;18524;45.190;5.732;2023-02-11T05:46:33;101189.94;;;0.97;88.10
15670;BME280;18524;45.190;5.732;2023-02-11T05:51:23;101183.84;;;1.03;87.25
15670;BME280;18524;45.190;5.732;2023-02-11T05:56:14;101183.94;;;0.95;87.44
15670;BME280;18524;45.190;5.732;2023-02-11T06:01:04;101193.63;;;0.62;88.72
15670;BME280;18524;45.190;5.732;2023-02-11T06:05:55;101182.38;;;0.77;88.80
15670;BME280;18524;45.190;5.732;2023-02-11T06:10:45;101178.94;;;0.75;88.71
15670;BME280;18524;45.190;5.732;2023-02-11T06:15:36;101180.59;;;0.81;88.15
15670;BME280;18524;45.190;5.732;2023-02-11T06:20:26;101187.53;;;0.71;88.99
15670;BME280;18524;45.190;5.732;2023-02-11T06:25:17;101178.94;;;0.75;89.07
15670;BME280;18524;45.190;5.732;2023-02-11T06:30:08;101171.84;;;0.99;88.72
15670;BME280;18524;45.190;5.732;2023-02-11T06:34:59;101170.91;;;1.04;87.78
15670;BME280;18524;45.190;5.732;2023-02-11T06:39:49;101160.56;;;1.06;87.13
15670;BME280;18524;45.190;5.732;2023-02-11T06:44:40;101168.31;;;1.06;86.45
15670;BME280;18524;45.190;5.732;2023-02-11T06:49:30;101159.66;;;1.13;86.71
15670;BME280;18524;45.190;5.732;2023-02-11T06:54:21;101166.59;;;1.08;86.45
15670;BME280;18524;45.190;5.732;2023-02-11T06:59:16;101162.31;;;1.05;86.28
15670;BME280;18524;45.190;5.732;2023-02-11T07:04:07;101173.50;;;1.06;86.81
15670;BME280;18524;45.190;5.732;2023-02-11T07:08:57;101176.91;;;1.08;86.70
15670;BME280;18524;45.190;5.732;2023-02-11T07:13:48;101181.34;;;0.93;87.00
15670;BME280;18524;45.190;5.732;2023-02-11T07:18:38;101185.63;;;0.98;86.94
15670;BME280;18524;45.190;5.732;2023-02-11T07:23:29;101195.94;;;1.01;87.06
15670;BME280;18524;45.190;5.732;2023-02-11T07:28:19;101209.00;;;0.82;87.97
15670;BME280;18524;45.190;5.732;2023-02-11T07:33:09;101203.03;;;0.76;88.76
15670;BME280;18524;45.190;5.732;2023-02-11T07:38:00;101204.59;;;0.93;89.04
15670;BME280;18524;45.190;5.732;2023-02-11T07:42:50;101215.84;;;0.86;89.08
15670;BME280;18524;45.190;5.732;2023-02-11T07:47:41;101217.31;;;1.21;87.47
15670;BME280;18524;45.190;5.732;2023-02-11T07:52:31;101229.31;;;1.27;86.76
15670;BME280;18524;45.190;5.732;2023-02-11T07:57:22;101227.25;;;1.61;84.88
15670;BME280;18524;45.190;5.732;2023-02-11T08:02:12;101233.94;;;1.80;84.02
15670;BME280;18524;45.190;5.732;2023-02-11T08:07:03;101237.97;;;2.04;82.46
15670;BME280;18524;45.190;5.732;2023-02-11T08:11:54;101240.31;;;2.27;80.46
15670;BME280;18524;45.190;5.732;2023-02-11T08:16:45;101237.28;;;2.57;78.58
15670;BME280;18524;45.190;5.732;2023-02-11T08:21:36;101236.78;;;2.91;77.12
15670;BME280;18524;45.190;5.732;2023-02-11T08:26:28;101240.03;;;3.05;74.69
15670;BME280;18524;45.190;5.732;2023-02-11T08:31:25;101239.09;;;3.10;74.26
15670;BME280;18524;45.190;5.732;2023-02-11T08:36:19;101243.88;;;3.35;73.43
15670;BME280;18524;45.190;5.732;2023-02-11T08:41:10;101240.28;;;3.42;71.96
15670;BME280;18524;45.190;5.732;2023-02-11T08:46:01;101241.78;;;3.54;72.39
15670;BME280;18524;45.190;5.732;2023-02-11T08:50:52;101243.00;;;3.82;70.96
15670;BME280;18524;45.190;5.732;2023-02-11T08:55:50;101254.63;;;4.06;69.33
15670;BME280;18524;45.190;5.732;2023-02-11T09:00:40;101247.56;;;4.14;69.22
15670;BME280;18524;45.190;5.732;2023-02-11T09:05:33;101254.72;;;4.43;67.41
15670;BME280;18524;45.190;5.732;2023-02-11T09:10:23;101250.78;;;4.25;66.68
15670;BME280;18524;45.190;5.732;2023-02-11T09:15:13;101249.31;;;4.54;66.58
15670;BME280;18524;45.190;5.732;2023-02-11T09:20:04;101252.50;;;4.66;65.63
15670;BME280;18524;45.190;5.732;2023-02-11T09:24:54;101260.00;;;4.79;64.42
15670;BME280;18524;45.190;5.732;2023-02-11T09:29:45;101251.59;;;4.67;64.31
15670;BME280;18524;45.190;5.732;2023-02-11T09:34:35;101241.88;;;4.76;64.76
15670;BME280;18524;45.190;5.732;2023-02-11T09:39:26;101240.00;;;4.84;64.49
15670;BME280;18524;45.190;5.732;2023-02-11T09:44:24;101224.63;;;5.09;63.54
15670;BME280;18524;45.190;5.732;2023-02-11T09:49:20;101222.47;;;5.60;60.40
15670;BME280;18524;45.190;5.732;2023-02-11T09:54:24;101219.91;;;5.91;59.63
15670;BME280;18524;45.190;5.732;2023-02-11T09:59:16;101221.34;;;6.03;58.33
15670;BME280;18524;45.190;5.732;2023-02-11T10:04:23;101218.50;;;6.40;57.01
15670;BME280;18524;45.190;5.732;2023-02-11T10:14:53;101205.94;;;6.80;53.09
15670;BME280;18524;45.190;5.732;2023-02-11T10:20:00;101205.72;;;7.39;51.00
15670;BME280;18524;45.190;5.732;2023-02-11T10:24:54;101218.94;;;7.60;49.60
15670;BME280;18524;45.190;5.732;2023-02-11T10:29:55;101210.19;;;7.36;49.08
15670;BME280;18524;45.190;5.732;2023-02-11T10:34:48;101223.53;;;7.53;48.44
15670;BME280;18524;45.190;5.732;2023-02-11T10:39:39;101222.88;;;7.71;49.01
15670;BME280;18524;45.190;5.732;2023-02-11T10:44:33;101223.13;;;8.12;48.39
15670;BME280;18524;45.190;5.732;2023-02-11T10:54:26;101205.03;;;8.31;47.58
15670;BME280;18524;45.190;5.732;2023-02-11T10:59:36;101200.41;;;8.14;47.80
15670;BME280;18524;45.190;5.732;2023-02-11T11:09:27;101180.84;;;8.91;46.36
15670;BME280;18524;45.190;5.732;2023-02-11T11:14:26;101172.69;;;9.19;45.36
15670;BME280;18524;45.190;5.732;2023-02-11T11:19:23;101157.97;;;9.57;45.03
15670;BME280;18524;45.190;5.732;2023-02-11T11:24:21;101152.34;;;9.85;43.90
15670;BME280;18524;45.190;5.732;2023-02-11T11:29:19;101138.75;;;10.15;43.03
15670;BME280;18524;45.190;5.732;2023-02-11T11:34:21;101127.56;;;10.11;42.22
15670;BME280;18524;45.190;5.732;2023-02-11T11:39:25;101123.31;;;9.90;41.10
15670;BME280;18524;45.190;5.732;2023-02-11T11:44:32;101115.66;;;10.42;41.40
15670;BME280;18524;45.190;5.732;2023-02-11T11:49:33;101104.25;;;10.43;40.75
15670;BME280;18524;45.190;5.732;2023-02-11T11:54:26;101092.00;;;10.78;39.76
15670;BME280;18524;45.190;5.732;2023-02-11T11:59:17;101079.44;;;10.84;39.75
15670;BME280;18524;45.190;5.732;2023-02-11T12:15:30;101066.44;;;11.16;37.65
15670;BME280;18524;45.190;5.732;2023-02-11T12:20:41;101056.00;;;10.97;37.09
15670;BME280;18524;45.190;5.732;2023-02-11T12:25:44;101056.25;;;10.58;37.86
15670;BME280;18524;45.190;5.732;2023-02-11T12:41:08;101037.66;;;10.80;38.75
15670;BME280;18524;45.190;5.732;2023-02-11T12:56:33;100999.72;;;11.03;37.88
15670;BME280;18524;45.190;5.732;2023-02-11T13:01:32;101004.84;;;10.88;38.04
15670;BME280;18524;45.190;5.732;2023-02-11T13:06:31;100993.75;;;10.66;38.55
15670;BME280;18524;45.190;5.732;2023-02-11T13:11:27;100982.63;;;10.78;38.87
15670;BME280;18524;45.190;5.732;2023-02-11T13:31:08;100953.56;;;10.48;40.53
15670;BME280;18524;45.190;5.732;2023-02-11T13:41:02;100942.91;;;10.51;40.27
15670;BME280;18524;45.190;5.732;2023-02-11T13:45:58;100935.34;;;10.45;40.87
15670;BME280;18524;45.190;5.732;2023-02-11T13:50:53;100927.16;;;10.51;41.11
15670;BME280;18524;45.190;5.732;2023-02-11T13:55:47;100922.44;;;10.58;41.32
15670;BME280;18524;45.190;5.732;2023-02-11T14:05:31;100909.94;;;10.63;41.47
15670;BME280;18524;45.190;5.732;2023-02-11T14:15:38;100910.09;;;10.60;42.02
15670;BME280;18524;45.190;5.732;2023-02-11T14:20:34;100907.22;;;10.64;42.09
15670;BME280;18524;45.190;5.732;2023-02-11T14:25:26;100902.63;;;10.52;42.16
15670;BME280;18524;45.190;5.732;2023-02-11T14:45:41;100896.47;;;10.53;42.76
15670;BME280;18524;45.190;5.732;2023-02-11T14:50:43;100895.53;;;10.54;42.90
15670;BME280;18524;45.190;5.732;2023-02-11T14:55:38;100900.94;;;10.51;42.23
15670;BME280;18524;45.190;5.732;2023-02-11T15:00:30;100890.34;;;10.53;43.04
15670;BME280;18524;45.190;5.732;2023-02-11T15:05:26;100889.69;;;10.49;41.87
15670;BME280;18524;45.190;5.732;2023-02-11T15:10:21;100884.38;;;10.67;41.70
15670;BME280;18524;45.190;5.732;2023-02-11T15:15:17;100876.22;;;10.55;42.13
15670;BME280;18524;45.190;5.732;2023-02-11T15:20:24;100875.38;;;10.55;41.56
15670;BME280;18524;45.190;5.732;2023-02-11T15:25:15;100868.25;;;10.41;42.08
15670;BME280;18524;45.190;5.732;2023-02-11T15:35:11;100863.19;;;10.54;41.99
15670;BME280;18524;45.190;5.732;2023-02-11T15:40:18;100862.69;;;10.63;42.16
15670;BME280;18524;45.190;5.732;2023-02-11T15:50:06;100854.91;;;10.61;43.58
15670;BME280;18524;45.190;5.732;2023-02-11T15:54:58;100852.72;;;10.54;44.87
15670;BME280;18524;45.190;5.732;2023-02-11T15:59:52;100853.03;;;10.48;44.94
15670;BME280;18524;45.190;5.732;2023-02-11T16:04:54;100853.66;;;10.36;44.61
15670;BME280;18524;45.190;5.732;2023-02-11T16:09:45;100860.06;;;10.30;43.43
15670;BME280;18524;45.190;5.732;2023-02-11T16:14:46;100880.97;;;10.14;43.02
15670;BME280;18524;45.190;5.732;2023-02-11T16:19:43;100875.03;;;10.11;44.85
15670;BME280;18524;45.190;5.732;2023-02-11T16:24:37;100877.88;;;10.06;45.11
15670;BME280;18524;45.190;5.732;2023-02-11T16:29:30;100884.88;;;9.88;44.42
15670;BME280;18524;45.190;5.732;2023-02-11T16:34:23;100889.59;;;9.82;44.48
15670;BME280;18524;45.190;5.732;2023-02-11T16:39:16;100889.19;;;9.72;44.43
15670;BME280;18524;45.190;5.732;2023-02-11T16:44:06;100897.34;;;9.66;45.10
15670;BME280;18524;45.190;5.732;2023-02-11T16:49:03;100898.25;;;9.65;45.59
15670;BME280;18524;45.190;5.732;2023-02-11T16:53:57;100899.19;;;9.64;45.64
15670;BME280;18524;45.190;5.732;2023-02-11T16:58:47;100904.66;;;9.59;45.49
15670;BME280;18524;45.190;5.732;2023-02-11T17:03:38;100908.63;;;9.49;46.38
15670;BME280;18524;45.190;5.732;2023-02-11T17:08:29;100904.84;;;9.37;46.90
15670;BME280;18524;45.190;5.732;2023-02-11T17:13:20;100903.28;;;9.33;47.76
15670;BME280;18524;45.190;5.732;2023-02-11T17:18:13;100907.94;;;9.27;48.42
15670;BME280;18524;45.190;5.732;2023-02-11T17:23:04;100911.69;;;9.21;48.89
15670;BME280;18524;45.190;5.732;2023-02-11T17:27:54;100921.19;;;9.05;48.06
15670;BME280;18524;45.190;5.732;2023-02-11T17:32:44;100928.47;;;8.98;48.47
15670;BME280;18524;45.190;5.732;2023-02-11T17:37:36;100936.63;;;8.91;48.97
15670;BME280;18524;45.190;5.732;2023-02-11T17:42:26;100939.22;;;8.92;47.75
15670;BME280;18524;45.190;5.732;2023-02-11T17:47:18;100951.53;;;8.70;48.35
15670;BME280;18524;45.190;5.732;2023-02-11T17:52:08;100960.50;;;8.64;48.61
15670;BME280;18524;45.190;5.732;2023-02-11T17:56:59;100961.06;;;8.51;49.64
15670;BME280;18524;45.190;5.732;2023-02-11T18:01:49;100964.94;;;8.42;49.88
15670;BME280;18524;45.190;5.732;2023-02-11T18:06:40;100965.84;;;8.41;50.74
15670;BME280;18524;45.190;5.732;2023-02-11T18:11:32;100974.81;;;8.35;51.34
15670;BME280;18524;45.190;5.732;2023-02-11T18:16:23;100973.47;;;8.25;51.44
15670;BME280;18524;45.190;5.732;2023-02-11T18:21:15;100981.50;;;8.21;51.68
15670;BME280;18524;45.190;5.732;2023-02-11T18:26:07;100988.06;;;8.09;51.56
15670;BME280;18524;45.190;5.732;2023-02-11T18:30:58;100989.94;;;8.05;51.62
15670;BME280;18524;45.190;5.732;2023-02-11T18:35:49;100995.19;;;8.05;52.36
15670;BME280;18524;45.190;5.732;2023-02-11T18:40:39;101002.78;;;7.90;53.19
15670;BME280;18524;45.190;5.732;2023-02-11T18:45:30;101004.00;;;7.81;54.24
15670;BME280;18524;45.190;5.732;2023-02-11T18:50:21;100997.34;;;7.72;54.98
15670;BME280;18524;45.190;5.732;2023-02-11T18:55:11;100998.75;;;7.59;56.23
15670;BME280;18524;45.190;5.732;2023-02-11T19:00:03;101016.19;;;7.59;55.85
15670;BME280;18524;45.190;5.732;2023-02-11T19:04:53;101013.88;;;7.51;56.37
15670;BME280;18524;45.190;5.732;2023-02-11T19:09:44;101015.38;;;7.57;56.48
15670;BME280;18524;45.190;5.732;2023-02-11T19:14:34;101007.91;;;7.47;56.72
15670;BME280;18524;45.190;5.732;2023-02-11T19:19:27;101014.03;;;7.46;56.13
15670;BME280;18524;45.190;5.732;2023-02-11T19:24:18;101011.59;;;7.42;54.92
15670;BME280;18524;45.190;5.732;2023-02-11T19:29:09;101009.09;;;7.39;55.03
15670;BME280;18524;45.190;5.732;2023-02-11T19:34:01;101015.22;;;7.38;53.84
15670;BME280;18524;45.190;5.732;2023-02-11T19:38:52;101016.28;;;7.32;54.33
15670;BME280;18524;45.190;5.732;2023-02-11T19:43:42;101014.66;;;7.30;53.07
15670;BME280;18524;45.190;5.732;2023-02-11T19:48:33;101009.63;;;7.00;54.58
15670;BME280;18524;45.190;5.732;2023-02-11T19:53:23;101010.88;;;6.90;55.00
15670;BME280;18524;45.190;5.732;2023-02-11T19:58:15;101017.13;;;6.86;55.31
15670;BME280;18524;45.190;5.732;2023-02-11T20:03:05;101013.13;;;6.76;56.25
15670;BME280;18524;45.190;5.732;2023-02-11T20:07:56;101011.47;;;6.73;56.04
15670;BME280;18524;45.190;5.732;2023-02-11T20:12:47;101023.66;;;6.73;55.30
15670;BME280;18524;45.190;5.732;2023-02-11T20:17:37;101016.09;;;6.65;56.41
15670;BME280;18524;45.190;5.732;2023-02-11T20:22:27;101026.56;;;6.64;54.85
15670;BME280;18524;45.190;5.732;2023-02-11T20:27:19;101022.41;;;6.58;56.25
15670;BME280;18524;45.190;5.732;2023-02-11T20:32:10;101020.44;;;6.65;56.79
15670;BME280;18524;45.190;5.732;2023-02-11T20:37:00;101028.38;;;6.62;58.11
15670;BME280;18524;45.190;5.732;2023-02-11T20:41:52;101035.41;;;6.59;59.58
15670;BME280;18524;45.190;5.732;2023-02-11T20:46:44;101036.34;;;6.32;59.95
15670;BME280;18524;45.190;5.732;2023-02-11T20:51:37;101031.34;;;5.98;61.24
15670;BME280;18524;45.190;5.732;2023-02-11T20:56:29;101022.41;;;5.77;62.96
15670;BME280;18524;45.190;5.732;2023-02-11T21:01:23;101022.06;;;5.60;63.48
15670;BME280;18524;45.190;5.732;2023-02-11T21:06:14;101022.13;;;5.58;63.24
15670;BME280;18524;45.190;5.732;2023-02-11T21:11:05;101019.91;;;5.45;62.90
15670;BME280;18524;45.190;5.732;2023-02-11T21:15:57;101025.09;;;5.45;62.67
15670;BME280;18524;45.190;5.732;2023-02-11T21:20:48;101021.56;;;5.47;62.19
15670;BME280;18524;45.190;5.732;2023-02-11T21:25:39;101027.97;;;5.36;62.76
15670;BME280;18524;45.190;5.732;2023-02-11T21:30:29;101026.22;;;5.36;62.61
15670;BME280;18524;45.190;5.732;2023-02-11T21:35:20;101022.88;;;5.32;62.88
15670;BME280;18524;45.190;5.732;2023-02-11T21:40:10;101027.75;;;5.12;63.83
15670;BME280;18524;45.190;5.732;2023-02-11T21:45:04;101021.44;;;5.22;64.53
15670;BME280;18524;45.190;5.732;2023-02-11T21:49:54;101022.81;;;5.34;63.23
15670;BME280;18524;45.190;5.732;2023-02-11T21:54:48;101024.84;;;5.24;63.32
15670;BME280;18524;45.190;5.732;2023-02-11T21:59:38;101032.06;;;5.13;63.87
15670;BME280;18524;45.190;5.732;2023-02-11T22:04:29;101034.94;;;5.04;64.36
15670;BME280;18524;45.190;5.732;2023-02-11T22:09:19;101036.81;;;4.99;64.21
15670;BME280;18524;45.190;5.732;2023-02-11T22:14:10;101035.59;;;5.11;64.79
15670;BME280;18524;45.190;5.732;2023-02-11T22:19:00;101027.97;;;5.05;65.19
15670;BME280;18524;45.190;5.732;2023-02-11T22:23:56;101026.31;;;5.02;65.47
15670;BME280;18524;45.190;5.732;2023-02-11T22:28:47;101020.34;;;4.98;65.08
15670;BME280;18524;45.190;5.732;2023-02-11T22:33:38;101028.31;;;4.92;66.15
15670;BME280;18524;45.190;5.732;2023-02-11T22:38:29;101022.16;;;4.96;66.04
15670;BME280;18524;45.190;5.732;2023-02-11T22:43:20;101026.44;;;4.97;65.71
15670;BME280;18524;45.190;5.732;2023-02-11T22:48:10;101026.94;;;4.79;66.63
15670;BME280;18524;45.190;5.732;2023-02-11T22:53:01;101036.59;;;4.74;66.83
15670;BME280;18524;45.190;5.732;2023-02-11T22:57:51;101034.69;;;4.81;67.85
15670;BME280;18524;45.190;5.732;2023-02-11T23:02:41;101037.50;;;4.73;67.74
15670;BME280;18524;45.190;5.732;2023-02-11T23:07:32;101036.78;;;4.66;66.92
15670;BME280;18524;45.190;5.732;2023-02-11T23:12:22;101047.00;;;4.74;67.78
15670;BME280;18524;45.190;5.732;2023-02-11T23:17:12;101043.63;;;4.70;67.71
15670;BME280;18524;45.190;5.732;2023-02-11T23:22:03;101041.50;;;4.52;67.98
15670;BME280;18524;45.190;5.732;2023-02-11T23:26:54;101045.25;;;4.40;69.10
15670;BME280;18524;45.190;5.732;2023-02-11T23:31:45;101046.25;;;4.35;69.27
15670;BME280;18524;45.190;5.732;2023-02-11T23:36:35;101053.16;;;4.36;69.32
15670;BME280;18524;45.190;5.732;2023-02-11T23:41:26;101054.03;;;4.35;68.78
15670;BME280;18524;45.190;5.732;2023-02-11T23:46:17;101060.72;;;4.10;69.62
15670;BME280;18524;45.190;5.732;2023-02-11T23:51:07;101066.59;;;3.79;71.50
15670;BME280;18524;45.190;5.732;2023-02-11T23:55:58;101061.56;;;4.10;71.32
